Time;durP1;ratioP1;P1;durP2;ratioP2;P2;SDS_P1;SDS_P2;PMS_P1;PMS_P2;Temp;Humidity;BMP_temperature;BMP_pressure;BME280_temperature;BME280_humidity;BME280_pressure;Samples;Min_cycle;Max_cycle;Signal;HPM_P1;HPM_P2
2021/09/23 00:00:44;;;;;;;30.17;18.55;;;13.00;99.90;;;;;;12529341;28;20037;-39
2021/09/23 00:06:47;;;;;;;28.23;18.50;;;12.90;99.90;;;;;;12535742;28;20077;-38
2021/09/23 00:12:51;;;;;;;29.88;19.52;;;12.80;99.90;;;;;;12531689;28;20597;-40
2021/09/23 00:18:53;;;;;;;31.90;20.48;;;12.70;99.90;;;;;;12534825;28;20069;-39
2021/09/23 00:24:55;;;;;;;30.00;20.50;;;12.60;99.90;;;;;;12530800;28;20064;-35
2021/09/23 00:30:58;;;;;;;35.33;21.23;;;12.60;99.90;;;;;;12530317;28;20052;-40
2021/09/23 00:37:00;;;;;;;35.83;22.05;;;12.50;99.90;;;;;;12529418;28;20068;-35
2021/09/23 00:43:04;;;;;;;35.67;23.73;;;12.50;99.90;;;;;;12527520;28;20053;-38
2021/09/23 00:49:07;;;;;;;33.97;23.73;;;12.60;99.90;;;;;;12532249;28;20057;-38
2021/09/23 00:55:11;;;;;;;37.08;24.88;;;12.60;99.90;;;;;;12528924;28;20040;-39
2021/09/23 01:01:13;;;;;;;42.25;24.42;;;12.60;99.90;;;;;;12528218;28;20094;-35
2021/09/23 01:07:19;;;;;;;34.70;25.13;;;12.50;99.90;;;;;;12533976;28;20088;-35
2021/09/23 01:13:22;;;;;;;38.92;26.35;;;12.50;99.90;;;;;;12529512;28;20045;-38
2021/09/23 01:19:24;;;;;;;35.30;25.25;;;12.50;99.90;;;;;;12531464;28;20094;-35
2021/09/23 01:25:27;;;;;;;36.45;25.52;;;12.60;99.90;;;;;;12526561;28;20336;-35
2021/09/23 01:31:29;;;;;;;39.05;25.15;;;12.60;99.90;;;;;;12525985;28;20037;-38
2021/09/23 01:37:31;;;;;;;35.97;26.10;;;12.50;99.90;;;;;;12529767;28;20086;-38
2021/09/23 01:43:33;;;;;;;36.72;26.40;;;12.60;99.90;;;;;;12530379;28;20049;-35
2021/09/23 01:49:35;;;;;;;40.53;25.30;;;12.60;99.90;;;;;;12527654;28;20140;-35
2021/09/23 01:55:38;;;;;;;44.55;27.45;;;12.50;99.90;;;;;;12524898;28;20511;-39
2021/09/23 02:01:40;;;;;;;39.97;27.15;;;12.50;99.90;;;;;;12524457;28;20049;-38
2021/09/23 02:07:43;;;;;;;41.75;27.27;;;12.50;99.90;;;;;;12530994;28;20570;-39
2021/09/23 02:13:45;;;;;;;41.38;27.50;;;12.50;99.90;;;;;;12523635;28;20093;-35
2021/09/23 02:19:47;;;;;;;41.13;27.25;;;12.30;99.90;;;;;;12528541;28;20056;-36
2021/09/23 02:25:49;;;;;;;44.17;26.80;;;12.30;99.90;;;;;;12528574;28;20045;-38
2021/09/23 02:31:51;;;;;;;41.60;27.33;;;12.30;99.90;;;;;;12519611;28;20057;-35
2021/09/23 02:37:54;;;;;;;46.15;27.88;;;12.20;99.90;;;;;;12527017;28;20136;-35
2021/09/23 02:43:56;;;;;;;43.35;28.50;;;12.20;99.90;;;;;;12524981;28;20053;-38
2021/09/23 02:49:58;;;;;;;48.10;30.55;;;12.30;99.90;;;;;;12525523;28;20087;-36
2021/09/23 02:56:00;;;;;;;47.20;29.25;;;12.30;99.90;;;;;;12519720;28;20722;-38
2021/09/23 03:02:02;;;;;;;46.85;30.13;;;12.20;99.90;;;;;;12524746;28;20045;-35
2021/09/23 03:08:04;;;;;;;48.78;29.58;;;12.20;99.90;;;;;;12528363;28;20521;-35
2021/09/23 03:14:07;;;;;;;50.38;29.50;;;12.40;99.90;;;;;;12528296;28;20072;-35
2021/09/23 03:20:11;;;;;;;46.65;28.95;;;12.50;99.90;;;;;;12523982;28;20064;-35
2021/09/23 03:26:14;;;;;;;45.63;28.15;;;12.60;99.90;;;;;;12526915;28;20107;-38
2021/09/23 03:32:16;;;;;;;46.33;29.02;;;12.60;99.90;;;;;;12522643;28;20053;-35
2021/09/23 03:38:18;;;;;;;47.30;29.70;;;12.60;99.90;;;;;;12527359;28;20080;-39
2021/09/23 03:44:20;;;;;;;52.30;30.88;;;12.60;99.90;;;;;;12523124;28;20041;-38
2021/09/23 03:50:23;;;;;;;47.78;31.02;;;12.50;99.90;;;;;;12523842;28;20095;-35
2021/09/23 03:56:24;;;;;;;49.30;31.40;;;12.50;99.90;;;;;;12521471;28;20052;-38
2021/09/23 04:02:26;;;;;;;45.85;30.23;;;12.50;99.90;;;;;;12521177;28;20045;-40
2021/09/23 04:08:30;;;;;;;52.70;31.00;;;12.40;99.90;;;;;;12519685;28;20467;-35
2021/09/23 04:14:32;;;;;;;48.10;30.45;;;12.40;99.90;;;;;;12520659;28;20044;-38
2021/09/23 04:20:35;;;;;;;48.05;31.48;;;12.30;99.90;;;;;;12523388;28;20041;-35
2021/09/23 04:26:37;;;;;;;50.15;31.05;;;12.30;99.90;;;;;;12522392;28;20076;-35
2021/09/23 04:32:40;;;;;;;47.67;31.77;;;12.30;99.90;;;;;;12521813;28;20045;-35
2021/09/23 04:38:41;;;;;;;46.13;30.15;;;12.30;99.90;;;;;;12523052;28;20406;-39
2021/09/23 04:44:44;;;;;;;47.38;29.77;;;12.20;99.90;;;;;;12521924;28;20044;-35
2021/09/23 04:50:47;;;;;;;42.60;27.52;;;12.20;99.90;;;;;;12533695;28;20052;-39
2021/09/23 04:56:49;;;;;;;38.88;26.33;;;12.20;99.90;;;;;;12536122;28;20049;-35
2021/09/23 05:02:53;;;;;;;43.00;27.60;;;12.20;99.90;;;;;;12527342;28;20084;-39
2021/09/23 05:08:56;;;;;;;39.53;26.65;;;12.20;99.90;;;;;;12532967;28;20055;-35
2021/09/23 05:14:58;;;;;;;35.28;23.67;;;12.20;99.90;;;;;;12528811;28;20072;-39
2021/09/23 05:21:00;;;;;;;36.28;23.45;;;12.30;99.90;;;;;;12531539;28;20094;-35
2021/09/23 05:27:03;;;;;;;36.20;22.98;;;12.30;99.90;;;;;;12530751;28;20053;-36
2021/09/23 05:33:07;;;;;;;33.80;22.50;;;12.40;99.90;;;;;;12530455;28;20607;-36
2021/09/23 05:39:09;;;;;;;36.42;22.65;;;12.40;99.90;;;;;;12530031;28;20094;-39
2021/09/23 05:45:13;;;;;;;33.83;22.05;;;12.50;99.90;;;;;;12527666;28;20466;-35
2021/09/23 05:51:15;;;;;;;38.50;22.65;;;12.50;99.90;;;;;;12528659;28;20048;-38
2021/09/23 05:57:23;;;;;;;35.90;21.92;;;12.60;99.90;;;;;;12527617;28;20068;-35
2021/09/23 06:03:26;;;;;;;34.53;22.08;;;12.60;99.90;;;;;;12527075;28;20046;-38
2021/09/23 06:09:29;;;;;;;33.90;21.88;;;12.60;99.90;;;;;;12526494;28;20057;-39
2021/09/23 06:15:35;;;;;;;34.10;22.75;;;12.60;99.90;;;;;;12529315;28;20053;-36
2021/09/23 06:21:39;;;;;;;34.60;21.90;;;12.70;99.90;;;;;;12527966;28;20123;-35
2021/09/23 06:27:43;;;;;;;37.40;23.15;;;12.80;99.90;;;;;;12527935;28;20467;-39
2021/09/23 06:33:46;;;;;;;39.10;22.90;;;12.80;99.90;;;;;;12526455;28;20038;-38
2021/09/23 06:39:49;;;;;;;37.45;21.70;;;12.90;99.90;;;;;;12530160;28;20048;-34
2021/09/23 06:45:51;;;;;;;36.60;21.40;;;12.90;99.90;;;;;;12522552;28;20491;-38
2021/09/23 06:51:54;;;;;;;41.20;20.77;;;12.90;99.90;;;;;;12522759;28;20045;-40
2021/09/23 06:58:00;;;;;;;36.40;20.73;;;13.00;99.90;;;;;;12524952;28;20045;-39
2021/09/23 07:04:02;;;;;;;29.67;19.83;;;13.00;99.90;;;;;;12522293;28;20669;-39
2021/09/23 07:10:05;;;;;;;27.23;18.45;;;13.00;99.90;;;;;;12519695;28;20486;-35
2021/09/23 07:16:07;;;;;;;26.83;16.98;;;13.20;99.90;;;;;;12494863;28;20095;-35
2021/09/23 07:22:10;;;;;;;28.95;18.50;;;13.20;99.90;;;;;;12520485;28;20136;-39
2021/09/23 07:28:15;;;;;;;27.13;18.30;;;13.40;99.90;;;;;;12518375;28;20048;-39
2021/09/23 07:34:17;;;;;;;26.25;16.27;;;13.50;99.90;;;;;;12519111;28;20053;-40
2021/09/23 07:40:20;;;;;;;24.83;15.82;;;13.70;99.90;;;;;;12521719;28;20053;-39
2021/09/23 07:46:22;;;;;;;24.13;15.25;;;13.80;99.90;;;;;;12520484;28;20520;-38
2021/09/23 07:52:25;;;;;;;22.38;14.43;;;14.10;99.90;;;;;;12522236;28;20131;-35
2021/09/23 07:58:27;;;;;;;26.08;14.65;;;14.20;99.90;;;;;;12520073;28;20056;-35
2021/09/23 08:04:30;;;;;;;27.13;15.65;;;14.50;99.90;;;;;;12515062;28;20640;-39
2021/09/23 08:10:32;;;;;;;21.25;14.98;;;14.60;99.90;;;;;;12522144;28;20128;-35
2021/09/23 08:16:36;;;;;;;19.80;13.43;;;14.60;99.90;;;;;;12515926;28;20064;-39
2021/09/23 08:22:38;;;;;;;23.88;13.50;;;14.70;99.90;;;;;;12529384;28;20057;-35
2021/09/23 08:28:40;;;;;;;18.70;13.57;;;14.80;99.90;;;;;;12531369;28;20040;-41
2021/09/23 08:34:44;;;;;;;17.70;12.45;;;14.70;99.90;;;;;;12530203;28;20101;-40
2021/09/23 08:40:52;;;;;;;20.45;12.38;;;14.80;99.90;;;;;;12528774;28;20056;-35
2021/09/23 08:46:59;;;;;;;18.90;11.63;;;15.20;99.90;;;;;;12528296;28;20623;-41
2021/09/23 08:53:01;;;;;;;19.98;11.98;;;15.60;99.90;;;;;;12528942;28;20044;-39
2021/09/23 08:59:05;;;;;;;21.00;10.95;;;15.90;99.90;;;;;;12531653;28;20486;-35
2021/09/23 09:05:17;;;;;;;16.58;9.98;;;16.20;99.90;;;;;;12530225;28;20037;-39
2021/09/23 09:11:22;;;;;;;15.15;10.48;;;16.30;99.90;;;;;;12526639;28;20044;-39
2021/09/23 09:17:26;;;;;;;17.90;10.20;;;16.50;99.90;;;;;;12534055;28;20092;-38
2021/09/23 09:23:56;;;;;;;14.93;10.30;;;16.70;99.90;;;;;;12499004;28;20052;-36
2021/09/23 09:30:22;;;;;;;13.98;9.52;;;16.90;99.90;;;;;;12483077;28;20092;-39
2021/09/23 09:36:48;;;;;;;17.70;10.23;;;16.90;99.90;;;;;;12496561;28;20045;-39
2021/09/23 09:42:54;;;;;;;14.75;10.40;;;17.10;99.90;;;;;;12475605;28;20099;-35
2021/09/23 09:48:58;;;;;;;18.63;10.05;;;17.40;99.90;;;;;;12480126;28;20172;-35
2021/09/23 09:55:10;;;;;;;17.17;10.75;;;17.50;99.90;;;;;;12517959;28;20083;-35
2021/09/23 10:01:13;;;;;;;15.30;9.52;;;17.50;99.90;;;;;;12524140;28;20049;-35
2021/09/23 10:07:18;;;;;;;15.23;11.00;;;17.50;99.90;;;;;;12526532;28;20052;-35
2021/09/23 10:13:23;;;;;;;16.33;11.00;;;17.90;99.90;;;;;;12497139;28;21475;-36
2021/09/23 10:19:27;;;;;;;15.40;10.57;;;18.00;99.90;;;;;;12480196;28;20115;-38
2021/09/23 10:25:32;;;;;;;19.35;11.45;;;18.10;99.90;;;;;;12521695;28;20499;-38
2021/09/23 10:31:37;;;;;;;17.77;11.05;;;18.30;99.90;;;;;;12520342;28;20054;-39
2021/09/23 10:37:42;;;;;;;18.52;10.65;;;18.10;99.90;;;;;;12524203;28;20056;-36
2021/09/23 10:43:45;;;;;;;18.92;10.75;;;18.10;99.90;;;;;;12494005;28;20053;-39
2021/09/23 10:49:49;;;;;;;13.60;10.23;;;18.40;99.90;;;;;;12478753;28;20095;-35
2021/09/23 10:55:57;;;;;;;17.73;11.10;;;18.90;99.90;;;;;;12473990;28;20085;-39
2021/09/23 11:02:20;;;;;;;14.45;10.07;;;18.80;99.90;;;;;;12478189;28;20049;-40
2021/09/23 11:08:26;;;;;;;16.20;8.98;;;18.90;99.90;;;;;;12476751;28;20064;-40
2021/09/23 11:14:30;;;;;;;12.98;9.13;;;18.60;99.90;;;;;;12478736;28;20041;-42
2021/09/23 11:20:35;;;;;;;15.25;9.00;;;18.60;99.90;;;;;;12506973;28;20123;-36
2021/09/23 11:26:41;;;;;;;13.93;8.95;;;18.50;99.90;;;;;;12475370;28;20050;-35
2021/09/23 11:32:58;;;;;;;13.98;8.20;;;18.90;99.90;;;;;;12470370;28;20045;-36
2021/09/23 11:39:04;;;;;;;14.88;7.75;;;19.00;99.90;;;;;;12469186;28;20749;-39
2021/09/23 11:45:21;;;;;;;11.65;7.60;;;18.70;99.90;;;;;;12476553;28;20047;-40
2021/09/23 11:51:29;;;;;;;17.00;8.45;;;18.50;99.90;;;;;;12476518;28;20053;-35
2021/09/23 11:57:35;;;;;;;12.90;8.00;;;18.50;99.90;;;;;;12473988;28;20053;-39
2021/09/23 12:03:46;;;;;;;11.85;8.35;;;18.50;99.90;;;;;;12501455;28;20172;-39
2021/09/23 12:10:14;;;;;;;13.38;7.70;;;18.60;99.90;;;;;;12522302;28;20037;-35
2021/09/23 12:16:25;;;;;;;12.27;7.60;;;18.80;99.90;;;;;;12473326;28;20049;-39
2021/09/23 12:22:37;;;;;;;13.02;7.72;;;18.90;99.90;;;;;;12476134;28;20518;-40
2021/09/23 12:28:46;;;;;;;10.15;6.50;;;19.00;99.90;;;;;;12469985;28;20054;-39
2021/09/23 12:34:54;;;;;;;11.73;7.40;;;19.10;99.90;;;;;;12473483;28;20053;-36
2021/09/23 12:40:59;;;;;;;10.25;7.57;;;18.80;99.90;;;;;;12481418;28;20540;-39
2021/09/23 12:47:13;;;;;;;13.93;7.63;;;18.30;99.90;;;;;;12519930;28;20045;-40
2021/09/23 12:53:20;;;;;;;16.67;6.65;;;18.20;99.90;;;;;;12493850;28;20112;-39
2021/09/23 12:59:30;;;;;;;11.35;7.38;;;18.10;99.90;;;;;;12470741;28;20396;-35
2021/09/23 13:05:33;;;;;;;15.05;8.27;;;18.00;99.90;;;;;;12472552;28;20106;-39
2021/09/23 13:11:38;;;;;;;13.65;7.90;;;17.90;99.90;;;;;;12477825;28;20053;-36
2021/09/23 13:17:40;;;;;;;14.73;7.60;;;17.80;99.90;;;;;;12480133;28;20749;-35
2021/09/23 13:23:44;;;;;;;12.70;7.53;;;17.70;99.90;;;;;;12508126;28;20069;-42
2021/09/23 13:29:46;;;;;;;14.35;7.28;;;17.70;99.90;;;;;;12526337;28;20041;-36
2021/09/23 13:35:50;;;;;;;10.32;7.75;;;17.60;99.90;;;;;;12479032;28;20388;-39
2021/09/23 13:41:52;;;;;;;12.65;7.75;;;17.50;99.90;;;;;;12475501;28;20042;-39
2021/09/23 13:47:54;;;;;;;9.35;7.55;;;17.60;99.90;;;;;;12479579;28;20081;-39
2021/09/23 13:53:57;;;;;;;13.43;7.47;;;17.50;99.90;;;;;;12505063;28;20459;-39
2021/09/23 13:59:59;;;;;;;10.25;7.78;;;17.40;99.90;;;;;;12527238;28;21042;-36
2021/09/23 14:06:01;;;;;;;13.32;7.93;;;17.50;99.90;;;;;;12525518;28;20062;-39
2021/09/23 14:12:03;;;;;;;13.20;8.57;;;17.50;99.90;;;;;;12508704;28;20517;-36
2021/09/23 14:18:05;;;;;;;12.23;8.18;;;17.50;99.90;;;;;;12476759;28;20544;-39
2021/09/23 14:24:15;;;;;;;14.40;8.70;;;17.60;99.90;;;;;;12509395;28;20421;-39
2021/09/23 14:30:17;;;;;;;12.80;8.57;;;17.60;99.90;;;;;;12520082;28;20419;-38
2021/09/23 14:36:20;;;;;;;13.52;7.82;;;17.50;99.90;;;;;;12478934;28;20119;-35
2021/09/23 14:42:22;;;;;;;13.52;7.80;;;17.50;99.90;;;;;;12495836;28;20053;-35
2021/09/23 14:48:23;;;;;;;11.48;7.65;;;17.40;99.90;;;;;;12526357;28;20069;-40
2021/09/23 14:54:25;;;;;;;10.10;7.10;;;17.40;99.90;;;;;;12483083;28;20045;-35
2021/09/23 15:00:27;;;;;;;11.52;6.57;;;17.20;99.90;;;;;;12479201;28;20053;-38
2021/09/23 15:06:30;;;;;;;11.25;6.95;;;17.30;99.90;;;;;;12472999;28;20056;-39
2021/09/23 15:12:36;;;;;;;12.10;7.03;;;17.20;99.90;;;;;;12493399;28;20049;-39
2021/09/23 15:18:42;;;;;;;12.50;6.95;;;17.20;99.90;;;;;;12522346;28;20079;-36
2021/09/23 15:24:46;;;;;;;12.27;6.85;;;17.20;99.90;;;;;;12485576;28;20088;-35
2021/09/23 15:30:50;;;;;;;19.33;8.27;;;17.20;99.90;;;;;;12475479;28;20081;-40
2021/09/23 15:36:54;;;;;;;11.18;7.30;;;17.20;99.90;;;;;;12475681;28;20129;-36
2021/09/23 15:42:57;;;;;;;12.13;7.22;;;17.10;99.90;;;;;;12497776;28;20509;-39
2021/09/23 15:49:00;;;;;;;10.70;6.40;;;17.10;99.90;;;;;;12522745;28;20113;-39
2021/09/23 15:55:02;;;;;;;16.33;7.22;;;17.20;99.90;;;;;;12482917;28;20102;-39
2021/09/23 16:01:05;;;;;;;14.10;5.93;;;17.30;99.90;;;;;;12480161;28;20059;-35
2021/09/23 16:07:07;;;;;;;10.85;5.25;;;17.40;99.90;;;;;;12518932;28;20493;-39
2021/09/23 16:13:12;;;;;;;8.68;5.18;;;17.50;99.90;;;;;;12519922;28;20526;-35
2021/09/23 16:19:14;;;;;;;14.73;6.45;;;17.50;99.90;;;;;;12523626;28;20053;-35
2021/09/23 16:25:17;;;;;;;9.27;4.90;;;17.50;99.90;;;;;;12481412;28;20069;-39
2021/09/23 16:31:19;;;;;;;9.15;4.53;;;17.30;99.90;;;;;;12483365;28;20044;-35
2021/09/23 16:37:21;;;;;;;10.43;4.45;;;17.10;99.90;;;;;;12520409;28;20068;-38
2021/09/23 16:43:23;;;;;;;6.47;3.78;;;17.00;99.90;;;;;;12524998;28;20084;-38
2021/09/23 16:49:29;;;;;;;9.07;3.72;;;16.90;99.90;;;;;;12532674;28;20097;-36
2021/09/23 16:55:37;;;;;;;9.98;3.83;;;16.80;99.90;;;;;;12485936;28;20050;-40
2021/09/23 17:01:41;;;;;;;6.28;3.78;;;16.70;99.90;;;;;;12495107;28;20072;-42
2021/09/23 17:07:44;;;;;;;9.15;3.63;;;16.80;99.90;;;;;;12529650;28;20056;-35
2021/09/23 17:13:46;;;;;;;11.30;3.50;;;16.60;99.90;;;;;;12501998;28;20097;-35
2021/09/23 17:19:51;;;;;;;;;;;16.70;99.90;;;;;;12482577;28;20052;-38
2021/09/23 17:25:53;;;;;;;8.50;3.35;;;16.60;99.90;;;;;;12527647;28;20532;-38
2021/09/23 17:31:55;;;;;;;8.50;3.88;;;16.60;99.90;;;;;;12514747;28;20072;-35
2021/09/23 17:37:58;;;;;;;9.40;3.63;;;16.70;99.90;;;;;;12486279;28;20050;-36
2021/09/23 17:44:00;;;;;;;8.73;3.30;;;16.70;99.90;;;;;;12511842;28;20056;-39
2021/09/23 17:50:07;;;;;;;6.15;3.05;;;16.60;99.90;;;;;;12525446;28;20053;-35
2021/09/23 17:56:09;;;;;;;6.70;3.00;;;16.70;99.90;;;;;;12480686;28;20053;-39
2021/09/23 18:02:11;;;;;;;10.85;3.75;;;16.60;99.90;;;;;;12493954;28;20053;-35
2021/09/23 18:08:13;;;;;;;8.18;3.28;;;16.60;99.90;;;;;;12525341;28;20060;-41
2021/09/23 18:14:15;;;;;;;7.03;3.50;;;16.50;99.90;;;;;;12524472;28;20588;-35
2021/09/23 18:20:17;;;;;;;7.60;4.30;;;16.40;99.90;;;;;;12526107;28;20071;-41
2021/09/23 18:26:19;;;;;;;10.05;4.60;;;16.00;99.90;;;;;;12523674;28;20179;-39
2021/09/23 18:32:21;;;;;;;9.48;5.25;;;15.60;99.90;;;;;;12525024;28;20102;-39
2021/09/23 18:38:23;;;;;;;8.13;5.25;;;15.60;99.90;;;;;;12523200;28;20050;-39
2021/09/23 18:44:25;;;;;;;10.65;5.72;;;15.40;99.90;;;;;;12523678;28;20140;-35
2021/09/23 18:50:28;;;;;;;8.13;4.28;;;15.40;99.90;;;;;;12523633;28;20049;-40
2021/09/23 18:56:30;;;;;;;8.47;4.60;;;15.30;99.90;;;;;;12522417;28;20066;-39
2021/09/23 19:02:32;;;;;;;8.38;3.85;;;15.30;99.90;;;;;;12522235;28;20507;-35
2021/09/23 19:08:34;;;;;;;9.57;4.00;;;15.40;99.90;;;;;;12525644;28;20139;-40
2021/09/23 19:14:36;;;;;;;9.20;4.13;;;15.20;99.90;;;;;;12520925;28;20056;-39
2021/09/23 19:20:38;;;;;;;12.60;4.18;;;15.20;99.90;;;;;;12521540;28;20503;-35
2021/09/23 19:26:40;;;;;;;8.75;4.20;;;15.20;99.90;;;;;;12523666;28;20049;-40
2021/09/23 19:32:44;;;;;;;11.65;4.30;;;15.10;99.90;;;;;;12499469;28;20075;-39
2021/09/23 19:38:46;;;;;;;3.47;1.90;;;15.20;99.90;;;;;;12471851;28;20049;-35
2021/09/23 19:44:48;;;;;;;3.97;1.17;;;15.00;99.90;;;;;;12473916;28;20404;-35
2021/09/23 19:50:50;;;;;;;4.00;1.20;;;14.70;99.90;;;;;;12478939;28;20052;-38
2021/09/23 19:56:52;;;;;;;3.65;0.90;;;14.50;99.90;;;;;;12520769;28;20049;-39
2021/09/23 20:02:54;;;;;;;4.97;1.35;;;14.40;99.90;;;;;;12500111;28;20165;-41
2021/09/23 20:08:56;;;;;;;8.07;1.50;;;14.40;99.90;;;;;;12473813;28;20573;-35
2021/09/23 20:14:58;;;;;;;10.18;1.30;;;14.40;99.90;;;;;;12511570;28;20049;-39
2021/09/23 20:21:00;;;;;;;6.57;1.48;;;14.30;99.90;;;;;;12521085;28;20053;-39
2021/09/23 20:27:03;;;;;;;7.38;1.45;;;14.30;99.90;;;;;;12485546;28;20053;-36
2021/09/23 20:33:05;;;;;;;7.90;1.23;;;14.40;99.90;;;;;;12510584;28;20557;-35
2021/09/23 20:39:09;;;;;;;11.18;1.58;;;14.30;99.90;;;;;;12530106;28;20056;-36
2021/09/23 20:45:13;;;;;;;8.23;1.80;;;14.30;99.90;;;;;;12528584;28;20087;-35
2021/09/23 20:51:26;;;;;;;7.82;1.80;;;14.40;99.90;;;;;;12527997;28;20517;-39
2021/09/23 20:57:37;;;;;;;5.78;1.60;;;14.20;99.90;;;;;;12529764;28;20049;-39
2021/09/23 21:03:44;;;;;;;8.60;1.80;;;14.40;99.90;;;;;;12529044;28;20053;-35
2021/09/23 21:09:46;;;;;;;8.65;1.55;;;14.30;99.90;;;;;;12527169;28;20094;-35
2021/09/23 21:15:49;;;;;;;11.35;1.58;;;14.30;99.90;;;;;;12529496;28;20080;-39
2021/09/23 21:21:52;;;;;;;11.85;1.88;;;14.20;99.90;;;;;;12530081;28;20084;-35
2021/09/23 21:27:54;;;;;;;9.40;2.15;;;14.20;99.90;;;;;;12527357;28;20049;-35
2021/09/23 21:33:56;;;;;;;9.10;1.65;;;14.30;99.90;;;;;;12524097;28;20053;-35
2021/09/23 21:39:58;;;;;;;10.50;1.98;;;14.20;99.90;;;;;;12528818;28;20053;-35
2021/09/23 21:46:00;;;;;;;12.85;1.98;;;14.30;99.90;;;;;;12525703;28;20098;-35
2021/09/23 21:52:03;;;;;;;12.57;2.17;;;14.30;99.90;;;;;;12527037;28;20538;-39
2021/09/23 21:58:05;;;;;;;9.70;2.25;;;14.40;99.90;;;;;;12524510;28;20084;-36
2021/09/23 22:04:06;;;;;;;10.57;2.67;;;14.20;99.90;;;;;;12525629;28;20410;-39
2021/09/23 22:10:09;;;;;;;11.38;2.72;;;14.20;99.90;;;;;;12530204;28;20410;-35
2021/09/23 22:16:11;;;;;;;15.73;2.95;;;14.10;99.90;;;;;;12524436;28;20144;-35
2021/09/23 22:22:13;;;;;;;12.70;2.60;;;14.20;99.90;;;;;;12529721;28;20567;-35
2021/09/23 22:28:15;;;;;;;10.32;3.10;;;14.00;99.90;;;;;;12525942;28;20081;-39
2021/09/23 22:34:17;;;;;;;10.05;2.80;;;14.00;99.90;;;;;;12523553;28;20048;-35
2021/09/23 22:40:20;;;;;;;11.43;2.58;;;13.90;99.90;;;;;;12524907;28;20159;-39
2021/09/23 22:46:22;;;;;;;10.27;2.37;;;13.80;99.90;;;;;;12526199;28;20053;-38
2021/09/23 22:52:24;;;;;;;13.35;2.65;;;13.80;99.90;;;;;;12519897;28;20735;-40
2021/09/23 22:58:26;;;;;;;13.02;2.72;;;13.80;99.90;;;;;;12522109;28;20446;-36
2021/09/23 23:04:28;;;;;;;11.52;3.33;;;13.80;99.90;;;;;;12520545;28;20072;-39
2021/09/23 23:10:30;;;;;;;11.98;3.08;;;13.90;99.90;;;;;;12523727;28;20072;-39
2021/09/23 23:16:33;;;;;;;15.75;3.17;;;13.80;99.90;;;;;;12521202;28;20065;-39
2021/09/23 23:22:36;;;;;;;17.00;3.10;;;13.80;99.90;;;;;;12526177;28;20722;-36
2021/09/23 23:28:38;;;;;;;13.15;3.08;;;13.80;99.90;;;;;;12522632;28;20505;-35
2021/09/23 23:34:40;;;;;;;13.43;2.90;;;13.80;99.90;;;;;;12521313;28;20052;-39
2021/09/23 23:40:44;;;;;;;15.05;2.67;;;13.80;99.90;;;;;;12521399;28;20099;-39
2021/09/23 23:46:48;;;;;;;;;;;13.90;99.90;;;;;;12520299;28;20565;-35
2021/09/23 23:52:51;;;;;;;11.85;2.92;;;13.80;99.90;;;;;;12520127;28;20357;-35
2021/09/23 23:58:53;;;;;;;9.57;2.47;;;13.80;99.90;;;;;;12519703;28;20048;-39
